sensor_id;sensor_type;location;lat;lon;timestamp;pressure;altitude;pressure_sealevel;temperature;humidity
4745;BME280;2386;42.138;24.746;2022-08-14T00:01:07;98863.41;;;24.81;87.08
4745;BME280;2386;42.138;24.746;2022-08-14T00:03:33;98852.56;;;24.88;87.17
4745;BME280;2386;42.138;24.746;2022-08-14T00:06:00;98864.34;;;24.85;86.33
4745;BME280;2386;42.138;24.746;2022-08-14T00:08:27;98862.84;;;24.88;86.46
4745;BME280;2386;42.138;24.746;2022-08-14T00:10:53;98844.25;;;24.88;84.79
4745;BME280;2386;42.138;24.746;2022-08-14T00:13:20;98841.31;;;24.73;86.27
4745;BME280;2386;42.138;24.746;2022-08-14T00:15:48;98841.22;;;24.81;85.41
4745;BME280;2386;42.138;24.746;2022-08-14T00:18:18;98828.25;;;24.73;86.55
4745;BME280;2386;42.138;24.746;2022-08-14T00:20:44;98833.22;;;24.68;85.89
4745;BME280;2386;42.138;24.746;2022-08-14T00:23:11;98836.72;;;24.77;85.05
4745;BME280;2386;42.138;24.746;2022-08-14T00:25:37;98837.03;;;24.75;85.80
4745;BME280;2386;42.138;24.746;2022-08-14T00:28:04;98837.50;;;24.77;85.39
4745;BME280;2386;42.138;24.746;2022-08-14T00:30:32;98831.16;;;24.77;85.43
4745;BME280;2386;42.138;24.746;2022-08-14T00:32:57;98822.97;;;24.80;84.75
4745;BME280;2386;42.138;24.746;2022-08-14T00:35:22;98830.16;;;24.94;84.26
4745;BME280;2386;42.138;24.746;2022-08-14T00:37:48;98830.38;;;24.88;85.53
4745;BME280;2386;42.138;24.746;2022-08-14T00:40:17;98831.31;;;24.93;85.43
4745;BME280;2386;42.138;24.746;2022-08-14T00:42:43;98819.97;;;24.85;84.80
4745;BME280;2386;42.138;24.746;2022-08-14T00:45:10;98825.59;;;24.77;84.14
4745;BME280;2386;42.138;24.746;2022-08-14T00:47:37;98822.09;;;24.55;85.69
4745;BME280;2386;42.138;24.746;2022-08-14T00:50:05;98818.88;;;24.66;85.54
4745;BME280;2386;42.138;24.746;2022-08-14T00:52:32;98826.84;;;24.67;86.05
4745;BME280;2386;42.138;24.746;2022-08-14T00:54:58;98820.84;;;24.65;85.24
4745;BME280;2386;42.138;24.746;2022-08-14T00:57:27;98823.41;;;24.82;85.01
4745;BME280;2386;42.138;24.746;2022-08-14T00:59:53;98821.00;;;24.81;85.21
4745;BME280;2386;42.138;24.746;2022-08-14T01:02:22;98809.66;;;24.74;84.42
4745;BME280;2386;42.138;24.746;2022-08-14T01:04:53;98815.78;;;24.79;84.38
4745;BME280;2386;42.138;24.746;2022-08-14T01:07:20;98821.69;;;24.78;85.60
4745;BME280;2386;42.138;24.746;2022-08-14T01:09:59;98815.09;;;24.82;84.67
4745;BME280;2386;42.138;24.746;2022-08-14T01:12:27;98818.22;;;24.81;84.72
4745;BME280;2386;42.138;24.746;2022-08-14T01:14:54;98821.00;;;24.81;84.14
4745;BME280;2386;42.138;24.746;2022-08-14T01:17:23;98812.75;;;24.60;86.11
4745;BME280;2386;42.138;24.746;2022-08-14T01:19:49;98804.66;;;24.67;85.86
4745;BME280;2386;42.138;24.746;2022-08-14T01:22:33;98809.06;;;24.68;85.16
4745;BME280;2386;42.138;24.746;2022-08-14T01:25:00;98807.19;;;24.60;85.86
4745;BME280;2386;42.138;24.746;2022-08-14T01:27:26;98809.50;;;24.58;86.88
4745;BME280;2386;42.138;24.746;2022-08-14T01:29:54;98808.34;;;24.47;86.60
4745;BME280;2386;42.138;24.746;2022-08-14T01:32:20;98803.03;;;24.42;87.83
4745;BME280;2386;42.138;24.746;2022-08-14T01:34:50;98804.28;;;24.44;87.29
4745;BME280;2386;42.138;24.746;2022-08-14T01:37:18;98812.97;;;24.55;87.22
4745;BME280;2386;42.138;24.746;2022-08-14T01:39:44;98805.56;;;24.59;86.73
4745;BME280;2386;42.138;24.746;2022-08-14T01:42:09;98812.06;;;24.63;87.02
4745;BME280;2386;42.138;24.746;2022-08-14T01:44:35;98811.00;;;24.55;87.49
4745;BME280;2386;42.138;24.746;2022-08-14T01:47:06;98820.72;;;24.62;86.74
4745;BME280;2386;42.138;24.746;2022-08-14T01:49:36;98810.19;;;24.55;87.94
4745;BME280;2386;42.138;24.746;2022-08-14T01:52:02;98818.97;;;24.57;87.82
4745;BME280;2386;42.138;24.746;2022-08-14T01:54:27;98798.19;;;24.51;87.34
4745;BME280;2386;42.138;24.746;2022-08-14T01:56:55;98817.13;;;24.61;87.67
4745;BME280;2386;42.138;24.746;2022-08-14T01:59:26;98816.41;;;24.52;87.98
4745;BME280;2386;42.138;24.746;2022-08-14T02:01:56;98816.78;;;24.50;87.88
4745;BME280;2386;42.138;24.746;2022-08-14T02:04:24;98822.69;;;24.49;89.97
4745;BME280;2386;42.138;24.746;2022-08-14T02:06:51;98806.13;;;24.52;89.24
4745;BME280;2386;42.138;24.746;2022-08-14T02:09:18;98809.38;;;24.54;88.20
4745;BME280;2386;42.138;24.746;2022-08-14T02:11:44;98806.94;;;24.53;88.15
4745;BME280;2386;42.138;24.746;2022-08-14T02:14:11;98799.78;;;24.52;88.48
4745;BME280;2386;42.138;24.746;2022-08-14T02:16:42;98799.34;;;24.50;88.10
4745;BME280;2386;42.138;24.746;2022-08-14T02:19:11;98797.47;;;24.54;88.41
4745;BME280;2386;42.138;24.746;2022-08-14T02:21:41;98799.91;;;24.55;88.59
4745;BME280;2386;42.138;24.746;2022-08-14T02:24:08;98807.06;;;24.56;87.85
4745;BME280;2386;42.138;24.746;2022-08-14T02:26:36;98789.59;;;24.32;89.34
4745;BME280;2386;42.138;24.746;2022-08-14T02:29:09;98803.69;;;24.39;89.24
4745;BME280;2386;42.138;24.746;2022-08-14T02:31:39;98784.25;;;24.27;88.80
4745;BME280;2386;42.138;24.746;2022-08-14T02:34:08;98787.28;;;24.34;89.35
4745;BME280;2386;42.138;24.746;2022-08-14T02:36:39;98798.59;;;24.29;88.97
4745;BME280;2386;42.138;24.746;2022-08-14T02:39:09;98786.94;;;24.14;89.68
4745;BME280;2386;42.138;24.746;2022-08-14T02:41:35;98787.22;;;24.21;89.36
4745;BME280;2386;42.138;24.746;2022-08-14T02:44:02;98787.97;;;24.10;89.55
4745;BME280;2386;42.138;24.746;2022-08-14T02:46:28;98786.91;;;24.02;90.51
4745;BME280;2386;42.138;24.746;2022-08-14T02:48:55;98790.19;;;24.16;88.97
4745;BME280;2386;42.138;24.746;2022-08-14T02:51:20;98782.81;;;24.20;89.38
4745;BME280;2386;42.138;24.746;2022-08-14T02:53:46;98787.41;;;24.16;88.91
4745;BME280;2386;42.138;24.746;2022-08-14T02:56:14;98776.81;;;24.18;90.26
4745;BME280;2386;42.138;24.746;2022-08-14T02:58:43;98775.44;;;24.24;89.20
4745;BME280;2386;42.138;24.746;2022-08-14T03:01:12;98760.19;;;24.18;89.05
4745;BME280;2386;42.138;24.746;2022-08-14T03:03:37;98775.94;;;24.27;88.78
4745;BME280;2386;42.138;24.746;2022-08-14T03:06:03;98781.75;;;24.13;90.25
4745;BME280;2386;42.138;24.746;2022-08-14T03:08:30;98786.34;;;24.09;91.82
4745;BME280;2386;42.138;24.746;2022-08-14T03:11:00;98772.56;;;24.00;91.08
4745;BME280;2386;42.138;24.746;2022-08-14T03:13:26;98767.28;;;24.07;91.59
4745;BME280;2386;42.138;24.746;2022-08-14T03:15:51;98769.94;;;24.04;92.59
4745;BME280;2386;42.138;24.746;2022-08-14T03:18:20;98773.09;;;24.14;92.51
4745;BME280;2386;42.138;24.746;2022-08-14T03:20:50;98769.78;;;24.21;91.95
4745;BME280;2386;42.138;24.746;2022-08-14T03:23:16;98752.53;;;24.15;92.04
4745;BME280;2386;42.138;24.746;2022-08-14T03:25:42;98761.06;;;24.10;92.73
4745;BME280;2386;42.138;24.746;2022-08-14T03:28:09;98763.63;;;24.15;93.84
4745;BME280;2386;42.138;24.746;2022-08-14T03:30:35;98766.34;;;24.03;95.16
4745;BME280;2386;42.138;24.746;2022-08-14T03:33:01;98765.00;;;24.09;95.09
4745;BME280;2386;42.138;24.746;2022-08-14T03:35:27;98766.31;;;23.91;95.56
4745;BME280;2386;42.138;24.746;2022-08-14T03:37:54;98755.56;;;23.89;96.29
4745;BME280;2386;42.138;24.746;2022-08-14T03:40:21;98761.50;;;23.79;96.76
4745;BME280;2386;42.138;24.746;2022-08-14T03:42:47;98769.25;;;23.74;98.31
4745;BME280;2386;42.138;24.746;2022-08-14T03:45:13;98778.28;;;23.83;97.55
4745;BME280;2386;42.138;24.746;2022-08-14T03:47:40;98772.13;;;23.77;98.49
4745;BME280;2386;42.138;24.746;2022-08-14T03:50:07;98772.69;;;23.71;99.33
4745;BME280;2386;42.138;24.746;2022-08-14T03:52:36;98770.94;;;23.66;99.76
4745;BME280;2386;42.138;24.746;2022-08-14T03:55:04;98786.13;;;23.60;100.00
4745;BME280;2386;42.138;24.746;2022-08-14T03:57:32;98782.44;;;23.47;100.00
4745;BME280;2386;42.138;24.746;2022-08-14T03:59:59;98782.66;;;23.42;100.00
4745;BME280;2386;42.138;24.746;2022-08-14T04:02:29;98789.91;;;23.55;100.00
4745;BME280;2386;42.138;24.746;2022-08-14T04:04:54;98782.09;;;23.57;100.00
4745;BME280;2386;42.138;24.746;2022-08-14T04:07:20;98790.66;;;23.65;100.00
4745;BME280;2386;42.138;24.746;2022-08-14T04:09:46;98797.00;;;23.65;100.00
4745;BME280;2386;42.138;24.746;2022-08-14T04:12:12;98791.91;;;23.46;100.00
4745;BME280;2386;42.138;24.746;2022-08-14T04:14:37;98791.22;;;23.49;100.00
4745;BME280;2386;42.138;24.746;2022-08-14T04:17:02;98805.88;;;23.50;100.00
4745;BME280;2386;42.138;24.746;2022-08-14T04:19:29;98798.59;;;23.45;100.00
4745;BME280;2386;42.138;24.746;2022-08-14T04:21:54;98800.41;;;23.41;100.00
4745;BME280;2386;42.138;24.746;2022-08-14T04:24:19;98805.75;;;23.46;100.00
4745;BME280;2386;42.138;24.746;2022-08-14T04:26:45;98812.06;;;23.55;100.00
4745;BME280;2386;42.138;24.746;2022-08-14T04:29:11;98811.88;;;23.61;100.00
4745;BME280;2386;42.138;24.746;2022-08-14T04:31:40;98815.66;;;23.47;100.00
4745;BME280;2386;42.138;24.746;2022-08-14T04:34:07;98806.53;;;23.55;100.00
4745;BME280;2386;42.138;24.746;2022-08-14T04:36:32;98800.78;;;23.61;100.00
4745;BME280;2386;42.138;24.746;2022-08-14T04:39:17;98803.16;;;23.71;100.00
4745;BME280;2386;42.138;24.746;2022-08-14T04:42:01;98801.19;;;23.71;100.00
4745;BME280;2386;42.138;24.746;2022-08-14T04:47:42;98812.66;;;23.82;100.00
4745;BME280;2386;42.138;24.746;2022-08-14T04:50:26;98815.22;;;23.87;100.00
4745;BME280;2386;42.138;24.746;2022-08-14T04:52:52;98811.91;;;23.93;100.00
4745;BME280;2386;42.138;24.746;2022-08-14T04:55:17;98801.91;;;24.01;100.00
4745;BME280;2386;42.138;24.746;2022-08-14T04:57:43;98800.88;;;24.06;100.00
4745;BME280;2386;42.138;24.746;2022-08-14T05:00:08;98805.34;;;24.19;100.00
4745;BME280;2386;42.138;24.746;2022-08-14T05:02:34;98807.75;;;24.20;100.00
4745;BME280;2386;42.138;24.746;2022-08-14T05:05:00;98811.63;;;24.28;100.00
4745;BME280;2386;42.138;24.746;2022-08-14T05:07:26;98796.75;;;24.33;100.00
4745;BME280;2386;42.138;24.746;2022-08-14T05:09:52;98802.56;;;24.40;100.00
4745;BME280;2386;42.138;24.746;2022-08-14T05:12:18;98797.72;;;24.49;100.00
4745;BME280;2386;42.138;24.746;2022-08-14T05:14:43;98799.56;;;24.57;100.00
4745;BME280;2386;42.138;24.746;2022-08-14T05:17:10;98785.94;;;24.64;100.00
4745;BME280;2386;42.138;24.746;2022-08-14T05:19:35;98788.50;;;24.69;99.89
4745;BME280;2386;42.138;24.746;2022-08-14T05:22:01;98780.75;;;24.75;97.91
4745;BME280;2386;42.138;24.746;2022-08-14T05:24:27;98778.69;;;24.84;98.44
4745;BME280;2386;42.138;24.746;2022-08-14T05:26:53;98779.72;;;24.92;97.32
4745;BME280;2386;42.138;24.746;2022-08-14T05:29:19;98790.63;;;25.09;95.08
4745;BME280;2386;42.138;24.746;2022-08-14T05:31:44;98776.19;;;25.03;94.23
4745;BME280;2386;42.138;24.746;2022-08-14T05:34:10;98784.97;;;25.17;92.42
4745;BME280;2386;42.138;24.746;2022-08-14T05:36:36;98766.69;;;25.04;93.26
4745;BME280;2386;42.138;24.746;2022-08-14T05:39:02;98786.44;;;25.27;90.77
4745;BME280;2386;42.138;24.746;2022-08-14T05:41:28;98783.31;;;25.29;89.79
4745;BME280;2386;42.138;24.746;2022-08-14T05:43:53;98775.34;;;25.27;90.55
4745;BME280;2386;42.138;24.746;2022-08-14T05:46:19;98776.72;;;25.33;89.69
4745;BME280;2386;42.138;24.746;2022-08-14T05:48:51;98796.38;;;25.40;88.04
4745;BME280;2386;42.138;24.746;2022-08-14T05:51:18;98791.03;;;25.47;89.46
4745;BME280;2386;42.138;24.746;2022-08-14T05:53:45;98787.81;;;25.45;89.41
4745;BME280;2386;42.138;24.746;2022-08-14T05:56:11;98794.75;;;25.51;89.97
4745;BME280;2386;42.138;24.746;2022-08-14T05:58:47;98791.09;;;25.23;91.69
4745;BME280;2386;42.138;24.746;2022-08-14T06:01:13;98795.63;;;25.15;95.23
4745;BME280;2386;42.138;24.746;2022-08-14T06:03:38;98801.38;;;24.98;97.28
4745;BME280;2386;42.138;24.746;2022-08-14T06:06:04;98791.84;;;24.75;97.35
4745;BME280;2386;42.138;24.746;2022-08-14T06:08:31;98801.09;;;24.67;99.48
4745;BME280;2386;42.138;24.746;2022-08-14T06:10:59;98797.94;;;24.44;100.00
4745;BME280;2386;42.138;24.746;2022-08-14T06:13:47;98798.63;;;24.41;100.00
4745;BME280;2386;42.138;24.746;2022-08-14T06:16:14;98804.59;;;24.31;100.00
4745;BME280;2386;42.138;24.746;2022-08-14T06:18:41;98802.03;;;24.26;100.00
4745;BME280;2386;42.138;24.746;2022-08-14T06:21:06;98801.00;;;24.30;100.00
4745;BME280;2386;42.138;24.746;2022-08-14T06:23:33;98799.06;;;24.31;100.00
4745;BME280;2386;42.138;24.746;2022-08-14T06:25:59;98794.53;;;24.26;100.00
4745;BME280;2386;42.138;24.746;2022-08-14T06:28:25;98811.16;;;24.26;100.00
4745;BME280;2386;42.138;24.746;2022-08-14T06:30:51;98803.31;;;24.07;100.00
4745;BME280;2386;42.138;24.746;2022-08-14T06:33:18;98815.28;;;23.99;100.00
4745;BME280;2386;42.138;24.746;2022-08-14T06:35:45;98811.91;;;23.93;100.00
4745;BME280;2386;42.138;24.746;2022-08-14T06:38:16;98812.84;;;23.98;100.00
4745;BME280;2386;42.138;24.746;2022-08-14T06:40:43;98807.19;;;23.94;100.00
4745;BME280;2386;42.138;24.746;2022-08-14T06:43:10;98809.28;;;23.97;100.00
4745;BME280;2386;42.138;24.746;2022-08-14T06:45:37;98813.59;;;24.07;100.00
4745;BME280;2386;42.138;24.746;2022-08-14T06:48:04;98807.41;;;24.22;100.00
4745;BME280;2386;42.138;24.746;2022-08-14T06:50:30;98815.25;;;24.41;100.00
4745;BME280;2386;42.138;24.746;2022-08-14T06:52:57;98812.28;;;24.46;100.00
4745;BME280;2386;42.138;24.746;2022-08-14T06:55:22;98802.13;;;24.50;100.00
4745;BME280;2386;42.138;24.746;2022-08-14T06:57:50;98804.63;;;24.55;97.74
4745;BME280;2386;42.138;24.746;2022-08-14T07:00:18;98812.63;;;24.56;98.12
4745;BME280;2386;42.138;24.746;2022-08-14T07:02:45;98799.09;;;24.55;97.65
4745;BME280;2386;42.138;24.746;2022-08-14T07:05:30;98805.56;;;24.59;96.70
4745;BME280;2386;42.138;24.746;2022-08-14T07:08:19;98813.59;;;24.73;93.57
4745;BME280;2386;42.138;24.746;2022-08-14T07:10:47;98805.47;;;24.68;93.94
4745;BME280;2386;42.138;24.746;2022-08-14T07:13:14;98802.59;;;24.76;93.60
4745;BME280;2386;42.138;24.746;2022-08-14T07:15:42;98801.66;;;24.48;95.87
4745;BME280;2386;42.138;24.746;2022-08-14T07:18:29;98813.00;;;24.67;95.68
4745;BME280;2386;42.138;24.746;2022-08-14T07:20:56;98820.19;;;24.80;94.71
4745;BME280;2386;42.138;24.746;2022-08-14T07:23:22;98825.72;;;24.80;94.66
4745;BME280;2386;42.138;24.746;2022-08-14T07:25:50;98820.47;;;25.00;92.40
4745;BME280;2386;42.138;24.746;2022-08-14T07:28:18;98825.91;;;25.08;90.77
4745;BME280;2386;42.138;24.746;2022-08-14T07:30:45;98822.09;;;25.01;91.19
4745;BME280;2386;42.138;24.746;2022-08-14T07:33:11;98824.88;;;25.01;90.83
4745;BME280;2386;42.138;24.746;2022-08-14T07:35:38;98823.78;;;24.93;92.13
4745;BME280;2386;42.138;24.746;2022-08-14T07:38:05;98814.22;;;25.03;90.63
4745;BME280;2386;42.138;24.746;2022-08-14T07:40:31;98829.94;;;24.99;88.03
4745;BME280;2386;42.138;24.746;2022-08-14T07:43:06;98834.88;;;24.81;92.33
4745;BME280;2386;42.138;24.746;2022-08-14T07:45:32;98826.94;;;24.58;93.69
4745;BME280;2386;42.138;24.746;2022-08-14T07:47:57;98828.44;;;24.56;99.67
4745;BME280;2386;42.138;24.746;2022-08-14T07:50:23;98835.88;;;24.64;100.00
4745;BME280;2386;42.138;24.746;2022-08-14T07:52:49;98833.94;;;24.32;98.98
4745;BME280;2386;42.138;24.746;2022-08-14T07:55:16;98824.88;;;24.22;100.00
4745;BME280;2386;42.138;24.746;2022-08-14T07:57:45;98829.13;;;23.99;100.00
4745;BME280;2386;42.138;24.746;2022-08-14T08:00:15;98833.53;;;23.58;100.00
4745;BME280;2386;42.138;24.746;2022-08-14T08:02:43;98835.50;;;22.90;100.00
4745;BME280;2386;42.138;24.746;2022-08-14T08:05:10;98828.78;;;22.45;100.00
4745;BME280;2386;42.138;24.746;2022-08-14T08:07:39;98832.41;;;21.85;100.00
4745;BME280;2386;42.138;24.746;2022-08-14T08:10:08;98824.09;;;21.59;100.00
4745;BME280;2386;42.138;24.746;2022-08-14T08:13:10;98818.25;;;21.52;100.00
4745;BME280;2386;42.138;24.746;2022-08-14T08:15:41;98833.34;;;21.54;100.00
4745;BME280;2386;42.138;24.746;2022-08-14T08:18:10;98834.34;;;21.50;100.00
4745;BME280;2386;42.138;24.746;2022-08-14T08:20:41;98833.03;;;21.47;100.00
4745;BME280;2386;42.138;24.746;2022-08-14T08:23:07;98839.66;;;21.55;100.00
4745;BME280;2386;42.138;24.746;2022-08-14T08:25:36;98839.34;;;21.56;100.00
4745;BME280;2386;42.138;24.746;2022-08-14T08:30:30;98828.63;;;21.38;100.00
4745;BME280;2386;42.138;24.746;2022-08-14T08:32:58;98838.88;;;21.46;100.00
4745;BME280;2386;42.138;24.746;2022-08-14T08:35:28;98827.69;;;21.51;100.00
4745;BME280;2386;42.138;24.746;2022-08-14T08:38:07;98832.88;;;21.52;100.00
4745;BME280;2386;42.138;24.746;2022-08-14T08:40:35;98827.34;;;21.52;100.00
4745;BME280;2386;42.138;24.746;2022-08-14T08:43:05;98840.81;;;21.71;100.00
4745;BME280;2386;42.138;24.746;2022-08-14T08:45:32;98833.69;;;21.79;100.00
4745;BME280;2386;42.138;24.746;2022-08-14T08:47:57;98837.59;;;21.95;100.00
4745;BME280;2386;42.138;24.746;2022-08-14T08:50:26;98846.38;;;21.97;100.00
4745;BME280;2386;42.138;24.746;2022-08-14T08:52:55;98841.81;;;22.01;100.00
4745;BME280;2386;42.138;24.746;2022-08-14T08:58:17;98842.19;;;22.17;100.00
4745;BME280;2386;42.138;24.746;2022-08-14T09:00:49;98838.44;;;22.13;100.00
4745;BME280;2386;42.138;24.746;2022-08-14T09:03:18;98843.47;;;22.19;100.00
4745;BME280;2386;42.138;24.746;2022-08-14T09:08:22;98831.44;;;22.24;100.00
4745;BME280;2386;42.138;24.746;2022-08-14T09:10:52;98825.56;;;22.34;100.00
4745;BME280;2386;42.138;24.746;2022-08-14T09:13:20;98836.72;;;22.55;100.00
4745;BME280;2386;42.138;24.746;2022-08-14T09:15:48;98833.16;;;22.46;100.00
4745;BME280;2386;42.138;24.746;2022-08-14T09:18:16;98837.53;;;22.55;100.00
4745;BME280;2386;42.138;24.746;2022-08-14T09:20:44;98832.66;;;22.61;100.00
4745;BME280;2386;42.138;24.746;2022-08-14T09:23:11;98828.59;;;22.58;100.00
4745;BME280;2386;42.138;24.746;2022-08-14T09:25:39;98828.75;;;22.62;100.00
4745;BME280;2386;42.138;24.746;2022-08-14T09:28:06;98837.03;;;22.79;100.00
4745;BME280;2386;42.138;24.746;2022-08-14T09:30:35;98824.47;;;22.73;100.00
4745;BME280;2386;42.138;24.746;2022-08-14T09:38:15;98823.34;;;22.83;100.00
4745;BME280;2386;42.138;24.746;2022-08-14T09:43:44;98828.06;;;22.74;100.00
4745;BME280;2386;42.138;24.746;2022-08-14T09:46:11;98820.28;;;22.67;100.00
4745;BME280;2386;42.138;24.746;2022-08-14T09:48:37;98815.03;;;22.74;100.00
4745;BME280;2386;42.138;24.746;2022-08-14T09:51:06;98818.28;;;22.76;100.00
4745;BME280;2386;42.138;24.746;2022-08-14T09:53:44;98809.56;;;22.57;100.00
4745;BME280;2386;42.138;24.746;2022-08-14T09:56:12;98812.03;;;22.41;100.00
4745;BME280;2386;42.138;24.746;2022-08-14T09:58:45;98821.81;;;22.39;100.00
4745;BME280;2386;42.138;24.746;2022-08-14T10:01:13;98831.38;;;22.50;100.00
4745;BME280;2386;42.138;24.746;2022-08-14T10:03:52;98832.69;;;22.44;100.00
4745;BME280;2386;42.138;24.746;2022-08-14T10:06:25;98827.66;;;22.28;100.00
4745;BME280;2386;42.138;24.746;2022-08-14T10:09:03;98820.81;;;22.43;100.00
4745;BME280;2386;42.138;24.746;2022-08-14T10:11:35;98812.19;;;22.45;100.00
4745;BME280;2386;42.138;24.746;2022-08-14T10:14:32;98806.00;;;22.48;100.00
4745;BME280;2386;42.138;24.746;2022-08-14T10:16:58;98796.28;;;22.42;100.00
4745;BME280;2386;42.138;24.746;2022-08-14T10:19:29;98795.63;;;22.45;100.00
4745;BME280;2386;42.138;24.746;2022-08-14T10:21:58;98779.69;;;22.42;100.00
4745;BME280;2386;42.138;24.746;2022-08-14T10:24:36;98777.59;;;22.39;100.00
4745;BME280;2386;42.138;24.746;2022-08-14T10:27:15;98778.25;;;22.36;100.00
4745;BME280;2386;42.138;24.746;2022-08-14T10:29:42;98790.72;;;22.50;100.00
4745;BME280;2386;42.138;24.746;2022-08-14T10:32:08;98769.47;;;22.34;100.00
4745;BME280;2386;42.138;24.746;2022-08-14T10:34:36;98767.50;;;22.34;100.00
4745;BME280;2386;42.138;24.746;2022-08-14T10:37:08;98762.09;;;22.55;100.00
4745;BME280;2386;42.138;24.746;2022-08-14T10:39:36;98768.19;;;22.86;100.00
4745;BME280;2386;42.138;24.746;2022-08-14T10:42:10;98771.91;;;22.90;100.00
4745;BME280;2386;42.138;24.746;2022-08-14T10:44:41;98774.13;;;23.26;100.00
4745;BME280;2386;42.138;24.746;2022-08-14T10:47:11;98774.34;;;23.42;100.00
4745;BME280;2386;42.138;24.746;2022-08-14T10:49:42;98768.31;;;23.40;100.00
4745;BME280;2386;42.138;24.746;2022-08-14T10:52:19;98773.94;;;23.52;100.00
4745;BME280;2386;42.138;24.746;2022-08-14T10:54:46;98772.63;;;23.58;100.00
4745;BME280;2386;42.138;24.746;2022-08-14T10:57:20;98756.88;;;23.71;100.00
4745;BME280;2386;42.138;24.746;2022-08-14T10:59:58;98760.88;;;23.62;100.00
4745;BME280;2386;42.138;24.746;2022-08-14T11:02:35;98756.69;;;23.55;100.00
4745;BME280;2386;42.138;24.746;2022-08-14T11:05:11;98759.19;;;23.69;100.00
4745;BME280;2386;42.138;24.746;2022-08-14T11:07:55;98745.69;;;23.68;100.00
4745;BME280;2386;42.138;24.746;2022-08-14T11:11:07;98759.94;;;23.57;100.00
4745;BME280;2386;42.138;24.746;2022-08-14T11:13:07;98753.00;;;23.43;100.00
4745;BME280;2386;42.138;24.746;2022-08-14T11:15:34;98748.41;;;23.26;100.00
4745;BME280;2386;42.138;24.746;2022-08-14T11:18:00;98748.56;;;23.50;100.00
4745;BME280;2386;42.138;24.746;2022-08-14T11:20:28;98760.44;;;23.51;100.00
4745;BME280;2386;42.138;24.746;2022-08-14T11:22:56;98768.16;;;23.66;100.00
4745;BME280;2386;42.138;24.746;2022-08-14T11:25:24;98779.28;;;23.78;100.00
4745;BME280;2386;42.138;24.746;2022-08-14T11:27:53;98779.88;;;23.84;100.00
4745;BME280;2386;42.138;24.746;2022-08-14T11:30:21;98758.53;;;23.43;100.00
4745;BME280;2386;42.138;24.746;2022-08-14T11:32:48;98789.25;;;23.58;100.00
4745;BME280;2386;42.138;24.746;2022-08-14T11:35:20;98785.59;;;23.67;100.00
4745;BME280;2386;42.138;24.746;2022-08-14T11:38:02;98772.09;;;23.65;100.00
4745;BME280;2386;42.138;24.746;2022-08-14T11:40:36;98766.22;;;23.67;100.00
4745;BME280;2386;42.138;24.746;2022-08-14T11:43:04;98768.16;;;23.66;100.00
4745;BME280;2386;42.138;24.746;2022-08-14T11:45:33;98771.88;;;23.70;100.00
4745;BME280;2386;42.138;24.746;2022-08-14T11:48:12;98775.59;;;23.74;100.00
4745;BME280;2386;42.138;24.746;2022-08-14T11:50:38;98791.53;;;23.56;100.00
4745;BME280;2386;42.138;24.746;2022-08-14T11:53:05;98764.34;;;23.50;100.00
4745;BME280;2386;42.138;24.746;2022-08-14T11:55:36;98776.78;;;23.44;100.00
4745;BME280;2386;42.138;24.746;2022-08-14T11:58:12;98762.03;;;23.31;100.00
4745;BME280;2386;42.138;24.746;2022-08-14T12:00:52;98769.59;;;23.22;100.00
4745;BME280;2386;42.138;24.746;2022-08-14T12:03:18;98789.44;;;23.24;100.00
4745;BME280;2386;42.138;24.746;2022-08-14T12:05:44;98778.59;;;23.10;100.00
4745;BME280;2386;42.138;24.746;2022-08-14T12:08:10;98787.53;;;22.78;100.00
4745;BME280;2386;42.138;24.746;2022-08-14T12:10:38;98786.78;;;22.60;100.00
4745;BME280;2386;42.138;24.746;2022-08-14T12:13:30;98779.56;;;22.29;100.00
4745;BME280;2386;42.138;24.746;2022-08-14T12:16:07;98787.66;;;22.43;100.00
4745;BME280;2386;42.138;24.746;2022-08-14T12:18:41;98792.06;;;22.36;100.00
4745;BME280;2386;42.138;24.746;2022-08-14T12:21:20;98785.63;;;22.23;100.00
4745;BME280;2386;42.138;24.746;2022-08-14T12:23:59;98784.81;;;22.14;100.00
4745;BME280;2386;42.138;24.746;2022-08-14T12:26:25;98770.00;;;22.01;100.00
4745;BME280;2386;42.138;24.746;2022-08-14T12:29:06;98767.13;;;22.06;100.00
4745;BME280;2386;42.138;24.746;2022-08-14T12:31:35;98771.97;;;21.92;100.00
4745;BME280;2386;42.138;24.746;2022-08-14T12:34:04;98770.19;;;21.70;100.00
4745;BME280;2386;42.138;24.746;2022-08-14T12:36:31;98777.66;;;21.61;100.00
4745;BME280;2386;42.138;24.746;2022-08-14T12:38:58;98782.38;;;21.60;100.00
4745;BME280;2386;42.138;24.746;2022-08-14T12:41:29;98794.03;;;21.57;100.00
4745;BME280;2386;42.138;24.746;2022-08-14T12:44:29;98802.81;;;21.59;100.00
4745;BME280;2386;42.138;24.746;2022-08-14T12:47:12;98808.16;;;21.56;100.00
4745;BME280;2386;42.138;24.746;2022-08-14T12:50:11;98805.91;;;21.49;100.00
4745;BME280;2386;42.138;24.746;2022-08-14T12:53:32;98809.66;;;21.53;100.00
4745;BME280;2386;42.138;24.746;2022-08-14T12:56:09;98808.03;;;21.44;100.00
4745;BME280;2386;42.138;24.746;2022-08-14T13:04:15;98759.63;;;21.38;100.00
4745;BME280;2386;42.138;24.746;2022-08-14T13:06:45;98753.47;;;21.32;100.00
4745;BME280;2386;42.138;24.746;2022-08-14T14:49:47;98734.66;;;21.51;100.00
4745;BME280;2386;42.138;24.746;2022-08-14T14:52:14;98719.84;;;21.56;100.00
4745;BME280;2386;42.138;24.746;2022-08-14T14:54:41;98706.84;;;21.65;100.00
4745;BME280;2386;42.138;24.746;2022-08-14T14:57:09;98711.88;;;21.72;100.00
4745;BME280;2386;42.138;24.746;2022-08-14T14:59:39;98699.22;;;21.71;100.00
4745;BME280;2386;42.138;24.746;2022-08-14T15:02:06;98724.19;;;22.00;100.00
4745;BME280;2386;42.138;24.746;2022-08-14T15:04:34;98716.75;;;21.83;100.00
4745;BME280;2386;42.138;24.746;2022-08-14T15:07:00;98726.81;;;22.05;100.00
4745;BME280;2386;42.138;24.746;2022-08-14T15:09:25;98726.13;;;22.25;100.00
4745;BME280;2386;42.138;24.746;2022-08-14T15:11:51;98711.44;;;22.34;100.00
4745;BME280;2386;42.138;24.746;2022-08-14T15:14:16;98702.31;;;22.42;100.00
4745;BME280;2386;42.138;24.746;2022-08-14T15:16:45;98706.81;;;22.55;100.00
4745;BME280;2386;42.138;24.746;2022-08-14T15:19:10;98708.38;;;22.65;100.00
4745;BME280;2386;42.138;24.746;2022-08-14T15:21:36;98693.75;;;22.64;100.00